createdAt,value
2022-12-24T00:00:57.630Z,7.812
2022-12-24T00:03:57.806Z,7.625
2022-12-24T00:06:57.363Z,7.625
2022-12-24T00:09:57.275Z,7.687
2022-12-24T00:12:56.770Z,7.875
2022-12-24T00:15:58.231Z,8.0
2022-12-24T00:18:57.482Z,8.187
2022-12-24T00:21:57.496Z,8.25
2022-12-24T00:24:56.955Z,8.5
2022-12-24T00:27:57.459Z,8.5
2022-12-24T00:30:57.523Z,8.5
2022-12-24T00:33:57.510Z,8.5
2022-12-24T00:36:57.481Z,8.5
2022-12-24T00:39:57.359Z,8.687
2022-12-24T00:42:57.457Z,8.562
2022-12-24T00:45:57.713Z,8.562
2022-12-24T00:48:57.669Z,8.5
2022-12-24T00:51:57.417Z,8.437
2022-12-24T00:54:58.058Z,8.437
2022-12-24T00:57:57.173Z,8.5
2022-12-24T01:00:57.415Z,8.437
2022-12-24T01:03:57.081Z,8.375
2022-12-24T01:06:57.624Z,8.312
2022-12-24T01:09:57.938Z,8.187
2022-12-24T01:12:57.173Z,8.187
2022-12-24T01:15:57.757Z,8.0
2022-12-24T01:18:57.675Z,7.875
2022-12-24T01:21:56.822Z,7.812
2022-12-24T01:24:57.380Z,7.812
2022-12-24T01:27:56.794Z,7.812
2022-12-24T01:30:57.531Z,7.75
2022-12-24T01:33:56.839Z,7.75
2022-12-24T01:36:56.976Z,7.812
2022-12-24T01:39:57.744Z,7.875
2022-12-24T01:42:57.209Z,7.875
2022-12-24T01:45:57.327Z,8.0
2022-12-24T01:48:57.436Z,8.0
2022-12-24T01:51:57.403Z,8.0
2022-12-24T01:54:56.598Z,7.937
2022-12-24T01:57:57.052Z,8.062
2022-12-24T02:00:57.580Z,7.937
2022-12-24T02:03:57.867Z,7.812
2022-12-24T02:06:57.299Z,7.687
2022-12-24T02:09:57.663Z,7.687
2022-12-24T02:12:57.144Z,7.625
2022-12-24T02:15:57.136Z,7.562
2022-12-24T02:18:57.853Z,7.437
2022-12-24T02:21:57.081Z,7.312
2022-12-24T02:24:56.834Z,7.312
2022-12-24T02:27:57.481Z,7.25
2022-12-24T02:30:57.077Z,7.187
2022-12-24T02:33:59.145Z,7.187
2022-12-24T02:36:57.823Z,7.312
2022-12-24T02:39:57.318Z,7.437
2022-12-24T02:42:57.689Z,7.5
2022-12-24T02:45:59.246Z,7.25
2022-12-24T02:48:56.716Z,7.375
2022-12-24T02:51:57.490Z,7.5
2022-12-24T02:54:57.241Z,7.562
2022-12-24T02:57:57.076Z,7.562
2022-12-24T03:00:57.699Z,7.5
2022-12-24T03:03:57.154Z,7.5
2022-12-24T03:06:57.735Z,7.75
2022-12-24T03:09:57.343Z,7.75
2022-12-24T03:12:57.783Z,7.812
2022-12-24T03:15:57.256Z,7.687
2022-12-24T03:18:57.203Z,7.687
2022-12-24T03:21:57.354Z,7.562
2022-12-24T03:24:57.398Z,7.625
2022-12-24T03:27:57.999Z,7.625
2022-12-24T03:30:57.662Z,7.687
2022-12-24T03:33:57.682Z,7.625
2022-12-24T03:36:57.399Z,7.625
2022-12-24T03:39:57.105Z,7.625
2022-12-24T03:42:57.835Z,7.375
2022-12-24T03:45:57.751Z,7.562
2022-12-24T03:48:57.812Z,7.5
2022-12-24T03:51:57.089Z,7.5
2022-12-24T03:54:57.390Z,7.562
2022-12-24T03:57:57.747Z,7.5
2022-12-24T04:00:57.964Z,7.625
2022-12-24T04:03:57.376Z,7.5
2022-12-24T04:06:56.564Z,7.437
2022-12-24T04:09:57.400Z,7.5
2022-12-24T04:12:57.227Z,7.5
2022-12-24T04:15:57.304Z,7.5
2022-12-24T04:18:57.242Z,7.5
2022-12-24T04:21:57.531Z,7.562
2022-12-24T04:24:57.572Z,7.562
2022-12-24T04:27:57.957Z,7.375
2022-12-24T04:30:57.635Z,7.375
2022-12-24T04:33:57.842Z,7.687
2022-12-24T04:36:57.126Z,7.5
2022-12-24T04:39:57.136Z,7.5
2022-12-24T04:42:57.769Z,7.437
2022-12-24T04:45:57.224Z,7.437
2022-12-24T04:48:57.495Z,7.437
2022-12-24T04:51:56.792Z,7.437
2022-12-24T04:54:56.898Z,7.437
2022-12-24T04:57:57.353Z,7.562
2022-12-24T05:00:57.146Z,7.625
2022-12-24T05:03:56.834Z,7.812
2022-12-24T05:06:57.537Z,7.75
2022-12-24T05:09:57.261Z,7.75
2022-12-24T05:12:57.495Z,7.625
2022-12-24T05:15:57.782Z,7.812
2022-12-24T05:18:57.243Z,7.687
2022-12-24T05:21:57.212Z,7.687
2022-12-24T05:24:56.992Z,7.562
2022-12-24T05:27:57.768Z,7.562
2022-12-24T05:30:57.718Z,7.562
2022-12-24T05:33:57.334Z,7.437
2022-12-24T05:36:56.702Z,7.437
2022-12-24T05:39:57.636Z,7.312
2022-12-24T05:42:58.213Z,7.375
2022-12-24T05:45:57.769Z,7.25
2022-12-24T05:48:57.389Z,7.25
2022-12-24T05:51:57.783Z,7.187
2022-12-24T05:54:57.750Z,7.125
2022-12-24T05:57:56.981Z,7.125
2022-12-24T06:00:57.872Z,7.125
2022-12-24T06:03:57.699Z,7.125
2022-12-24T06:06:57.016Z,7.062
2022-12-24T06:09:57.707Z,7.062
2022-12-24T06:12:57.462Z,7.062
2022-12-24T06:15:57.862Z,7.062
2022-12-24T06:18:56.972Z,7.187
2022-12-24T06:21:57.145Z,7.125
2022-12-24T06:24:56.903Z,7.062
2022-12-24T06:27:56.755Z,7.062
2022-12-24T06:31:02.363Z,7.187
2022-12-24T06:33:57.497Z,7.062
2022-12-24T06:36:57.025Z,7.062
2022-12-24T06:39:57.804Z,7.25
2022-12-24T06:42:57.484Z,7.062
2022-12-24T06:45:57.380Z,7.125
2022-12-24T06:48:56.741Z,7.312
2022-12-24T06:51:57.352Z,7.187
2022-12-24T06:54:57.313Z,7.0
2022-12-24T06:57:57.574Z,7.125
2022-12-24T07:00:58.085Z,7.375
2022-12-24T07:03:57.903Z,7.437
2022-12-24T07:06:57.603Z,7.437
2022-12-24T07:09:57.263Z,7.437
2022-12-24T07:12:58.015Z,7.375
2022-12-24T07:15:56.978Z,7.437
2022-12-24T07:18:57.243Z,7.625
2022-12-24T07:21:57.706Z,7.437
2022-12-24T07:24:57.323Z,7.437
2022-12-24T07:27:57.707Z,7.375
2022-12-24T07:30:57.756Z,7.375
2022-12-24T07:33:56.734Z,7.312
2022-12-24T07:36:57.895Z,7.375
2022-12-24T07:39:58.202Z,7.437
2022-12-24T07:42:57.601Z,7.437
2022-12-24T07:45:57.249Z,7.375
2022-12-24T07:48:57.539Z,7.562
2022-12-24T07:51:57.734Z,7.562
2022-12-24T07:54:57.131Z,7.687
2022-12-24T07:57:57.378Z,7.687
2022-12-24T08:00:57.126Z,7.687
2022-12-24T08:03:57.979Z,7.625
2022-12-24T08:06:57.859Z,7.625
2022-12-24T08:09:57.709Z,7.5
2022-12-24T08:12:57.116Z,7.75
2022-12-24T08:15:57.972Z,7.75
2022-12-24T08:18:56.943Z,7.75
2022-12-24T08:21:57.691Z,7.75
2022-12-24T08:24:58.060Z,7.687
2022-12-24T08:27:56.816Z,7.687
2022-12-24T08:30:57.537Z,7.75
2022-12-24T08:33:57.284Z,7.812
2022-12-24T08:36:57.679Z,7.812
2022-12-24T08:39:57.962Z,7.812
2022-12-24T08:42:57.423Z,7.812
2022-12-24T08:45:58.279Z,7.812
2022-12-24T08:48:57.701Z,7.812
2022-12-24T08:51:56.678Z,7.812
2022-12-24T08:54:57.638Z,8.0
2022-12-24T08:57:57.150Z,8.125
2022-12-24T09:00:57.783Z,8.187
2022-12-24T09:03:57.378Z,8.187
2022-12-24T09:06:56.542Z,8.187
2022-12-24T09:09:58.156Z,8.312
2022-12-24T09:12:57.251Z,8.25
2022-12-24T09:15:57.558Z,8.25
2022-12-24T09:18:57.814Z,8.25
2022-12-24T09:21:57.800Z,8.187
2022-12-24T09:24:57.542Z,8.187
2022-12-24T09:27:57.160Z,8.187
2022-12-24T09:30:57.675Z,8.187
2022-12-24T09:33:57.083Z,8.312
2022-12-24T09:36:57.938Z,8.312
2022-12-24T09:39:57.231Z,8.25
2022-12-24T09:42:57.523Z,8.187
2022-12-24T09:45:57.744Z,8.437
2022-12-24T09:48:57.116Z,8.375
2022-12-24T09:51:57.816Z,8.375
2022-12-24T09:54:56.806Z,8.375
2022-12-24T09:57:56.868Z,8.687
2022-12-24T10:00:58.412Z,8.562
2022-12-24T10:03:57.630Z,8.437
2022-12-24T10:06:57.286Z,8.437
2022-12-24T10:09:58.113Z,8.687
2022-12-24T10:12:57.559Z,9.0
2022-12-24T10:15:57.403Z,9.0
2022-12-24T10:18:57.448Z,8.875
2022-12-24T10:21:57.064Z,8.937
2022-12-24T10:24:56.787Z,8.937
2022-12-24T10:27:57.209Z,9.0
2022-12-24T10:30:57.902Z,9.0
2022-12-24T10:33:56.750Z,8.937
2022-12-24T10:36:57.394Z,9.125
2022-12-24T10:39:57.285Z,9.125
2022-12-24T10:42:57.629Z,9.375
2022-12-24T10:45:57.012Z,9.25
2022-12-24T10:48:57.767Z,9.312
2022-12-24T10:51:57.282Z,9.25
2022-12-24T10:54:57.786Z,9.75
2022-12-24T10:57:57.101Z,10.062
2022-12-24T11:00:57.785Z,10.0
2022-12-24T11:04:17.096Z,10.0
2022-12-24T11:06:57.669Z,10.125
2022-12-24T11:09:57.050Z,9.812
2022-12-24T11:13:27.796Z,9.625
2022-12-24T11:15:57.720Z,9.625
2022-12-24T11:18:57.093Z,10.062
2022-12-24T11:21:57.570Z,10.062
2022-12-24T11:24:57.637Z,9.75
2022-12-24T11:27:57.517Z,10.125
2022-12-24T11:30:57.925Z,9.5
2022-12-24T11:33:57.311Z,9.312
2022-12-24T11:36:57.377Z,9.187
2022-12-24T11:39:58.210Z,9.25
2022-12-24T11:42:57.637Z,9.25
2022-12-24T11:45:57.976Z,9.062
2022-12-24T11:49:01.427Z,9.0
2022-12-24T11:51:57.356Z,9.312
2022-12-24T11:54:57.981Z,9.312
2022-12-24T11:57:57.116Z,9.437
2022-12-24T12:00:57.058Z,9.312
2022-12-24T12:03:57.305Z,9.187
2022-12-24T12:06:57.588Z,9.0
2022-12-24T12:09:57.300Z,9.125
2022-12-24T12:12:57.141Z,9.062
2022-12-24T12:15:57.883Z,9.062
2022-12-24T12:18:57.466Z,9.062
2022-12-24T12:21:57.106Z,9.062
2022-12-24T12:24:57.610Z,9.125
2022-12-24T12:27:57.278Z,9.125
2022-12-24T12:31:03.343Z,9.187
2022-12-24T12:33:57.580Z,9.125
2022-12-24T12:36:57.584Z,9.0
2022-12-24T12:39:57.330Z,9.062
2022-12-24T12:42:57.525Z,9.0
2022-12-24T12:45:57.582Z,8.875
2022-12-24T12:49:02.282Z,8.875
2022-12-24T12:51:57.210Z,8.812
2022-12-24T12:54:57.977Z,8.812
2022-12-24T12:57:57.459Z,8.75
2022-12-24T13:00:58.118Z,8.75
2022-12-24T13:03:57.997Z,8.75
2022-12-24T13:06:57.652Z,8.625
2022-12-24T13:09:58.039Z,8.625
2022-12-24T13:12:57.909Z,8.562
2022-12-24T13:15:57.304Z,8.562
2022-12-24T13:18:57.556Z,8.625
2022-12-24T13:21:56.897Z,8.562
2022-12-24T13:24:56.836Z,8.562
2022-12-24T13:27:57.222Z,8.5
2022-12-24T13:30:57.996Z,8.375
2022-12-24T13:33:58.126Z,8.312
2022-12-24T13:36:57.591Z,8.312
2022-12-24T13:39:58.334Z,8.312
2022-12-24T13:42:57.650Z,8.187
2022-12-24T13:45:57.813Z,8.125
2022-12-24T13:48:57.198Z,8.062
2022-12-24T13:51:57.853Z,8.062
2022-12-24T13:54:57.564Z,8.0
2022-12-24T13:57:57.358Z,7.937
2022-12-24T14:00:58.144Z,7.875
2022-12-24T14:03:57.143Z,7.875
2022-12-24T14:06:57.300Z,7.875
2022-12-24T14:09:57.373Z,7.812
2022-12-24T14:12:57.122Z,7.875
2022-12-24T14:15:58.193Z,7.875
2022-12-24T14:18:57.690Z,8.125
2022-12-24T14:21:57.093Z,8.125
2022-12-24T14:24:57.593Z,8.125
2022-12-24T14:27:58.052Z,7.937
2022-12-24T14:30:57.657Z,8.0
2022-12-24T14:33:56.899Z,8.0
2022-12-24T14:36:57.071Z,8.062
2022-12-24T14:39:57.205Z,8.062
2022-12-24T14:42:57.504Z,8.187
2022-12-24T14:45:57.875Z,8.125
2022-12-24T14:48:56.984Z,8.062
2022-12-24T14:51:57.291Z,7.937
2022-12-24T14:54:57.742Z,7.937
2022-12-24T14:57:57.553Z,7.687
2022-12-24T15:00:57.747Z,7.812
2022-12-24T15:03:58.067Z,7.75
2022-12-24T15:06:57.459Z,7.687
2022-12-24T15:09:58.088Z,7.625
2022-12-24T15:12:57.834Z,7.5
2022-12-24T15:15:57.064Z,7.5
2022-12-24T15:18:57.196Z,7.5
2022-12-24T15:21:57.921Z,7.375
2022-12-24T15:24:56.944Z,7.375
2022-12-24T15:27:57.194Z,7.25
2022-12-24T15:30:58.040Z,7.312
2022-12-24T15:33:57.540Z,7.312
2022-12-24T15:36:56.931Z,7.562
2022-12-24T15:39:57.549Z,7.625
2022-12-24T15:42:57.918Z,7.375
2022-12-24T15:45:57.531Z,7.5
2022-12-24T15:48:57.125Z,7.5
2022-12-24T15:51:57.313Z,7.5
2022-12-24T15:54:58.454Z,7.5
2022-12-24T15:57:57.311Z,7.562
2022-12-24T16:00:58.476Z,7.5
2022-12-24T16:03:57.252Z,7.562
2022-12-24T16:06:57.258Z,7.625
2022-12-24T16:09:58.119Z,7.5
2022-12-24T16:12:57.549Z,7.5
2022-12-24T16:15:57.545Z,7.625
2022-12-24T16:18:58.018Z,7.625
2022-12-24T16:21:57.108Z,7.625
2022-12-24T16:24:57.379Z,7.687
2022-12-24T16:28:00.335Z,7.562
2022-12-24T16:30:57.685Z,7.437
2022-12-24T16:33:57.998Z,7.25
2022-12-24T16:36:57.597Z,7.25
2022-12-24T16:39:57.595Z,7.25
2022-12-24T16:42:57.433Z,7.0
2022-12-24T16:45:57.855Z,6.812
2022-12-24T16:49:13.682Z,6.75
2022-12-24T16:51:57.592Z,6.75
2022-12-24T16:54:57.226Z,6.75
2022-12-24T16:57:57.507Z,6.75
2022-12-24T17:00:57.764Z,6.687
2022-12-24T17:03:57.827Z,6.687
2022-12-24T17:06:57.288Z,7.0
2022-12-24T17:09:57.965Z,7.0
2022-12-24T17:12:57.612Z,6.937
2022-12-24T17:15:58.386Z,6.875
2022-12-24T17:18:56.678Z,6.875
2022-12-24T17:21:56.887Z,7.187
2022-12-24T17:24:57.716Z,7.125
2022-12-24T17:27:56.946Z,7.25
2022-12-24T17:30:57.883Z,7.25
2022-12-24T17:33:57.383Z,7.25
2022-12-24T17:36:57.433Z,7.375
2022-12-24T17:39:57.665Z,7.375
2022-12-24T17:42:58.026Z,7.437
2022-12-24T17:45:57.698Z,7.437
2022-12-24T17:48:57.961Z,7.5
2022-12-24T17:51:57.207Z,7.5
2022-12-24T17:54:56.961Z,7.5
2022-12-24T17:57:57.118Z,7.5
2022-12-24T18:00:58.014Z,7.5
2022-12-24T18:03:57.058Z,7.437
2022-12-24T18:07:02.041Z,7.5
2022-12-24T18:09:57.891Z,7.5
2022-12-24T18:12:57.849Z,7.5
2022-12-24T18:15:56.890Z,7.5
2022-12-24T18:18:57.879Z,7.562
2022-12-24T18:21:57.905Z,7.562
2022-12-24T18:24:57.370Z,7.437
2022-12-24T18:27:57.407Z,7.437
2022-12-24T18:30:57.749Z,7.5
2022-12-24T18:33:58.075Z,7.437
2022-12-24T18:36:57.651Z,7.437
2022-12-24T18:39:57.891Z,7.437
2022-12-24T18:42:57.144Z,7.437
2022-12-24T18:45:57.241Z,7.437
2022-12-24T18:48:57.683Z,7.437
2022-12-24T18:51:57.023Z,7.437
2022-12-24T18:54:57.387Z,7.437
2022-12-24T18:57:56.996Z,7.437
2022-12-24T19:00:57.502Z,7.437
2022-12-24T19:03:57.713Z,7.375
2022-12-24T19:06:57.158Z,7.375
2022-12-24T19:09:57.832Z,7.5
2022-12-24T19:12:57.572Z,7.5
2022-12-24T19:15:57.352Z,7.562
2022-12-24T19:18:57.718Z,7.5
2022-12-24T19:21:57.885Z,7.562
2022-12-24T19:24:57.924Z,7.5
2022-12-24T19:27:57.397Z,7.437
2022-12-24T19:30:58.477Z,7.437
2022-12-24T19:33:57.528Z,7.5
2022-12-24T19:36:57.539Z,7.562
2022-12-24T19:39:58.094Z,7.562
2022-12-24T19:42:58.015Z,7.625
2022-12-24T19:45:57.512Z,7.562
2022-12-24T19:48:57.364Z,7.562
2022-12-24T19:51:57.807Z,7.562
2022-12-24T19:54:57.624Z,7.5
2022-12-24T19:57:57.261Z,7.5
2022-12-24T20:00:57.770Z,7.437
2022-12-24T20:03:58.039Z,7.5
2022-12-24T20:07:00.694Z,7.562
2022-12-24T20:09:57.427Z,7.625
2022-12-24T20:13:03.974Z,7.625
2022-12-24T20:15:57.350Z,7.562
2022-12-24T20:18:57.189Z,7.562
2022-12-24T20:21:57.593Z,7.562
2022-12-24T20:24:57.622Z,7.625
2022-12-24T20:27:57.066Z,7.625
2022-12-24T20:30:58.225Z,7.625
2022-12-24T20:33:57.255Z,7.625
2022-12-24T20:36:57.526Z,7.625
2022-12-24T20:39:57.437Z,7.625
2022-12-24T20:42:57.180Z,7.625
2022-12-24T20:45:57.573Z,7.562
2022-12-24T20:48:57.731Z,7.562
2022-12-24T20:51:57.360Z,7.625
2022-12-24T20:54:57.506Z,7.687
2022-12-24T20:57:57.487Z,7.687
2022-12-24T21:00:57.045Z,7.625
2022-12-24T21:03:56.837Z,7.562
2022-12-24T21:06:57.334Z,7.562
2022-12-24T21:09:57.523Z,7.562
2022-12-24T21:12:57.186Z,7.625
2022-12-24T21:15:57.455Z,7.687
2022-12-24T21:18:58.363Z,7.687
2022-12-24T21:21:57.216Z,7.625
2022-12-24T21:24:57.378Z,7.625
2022-12-24T21:27:57.530Z,7.5
2022-12-24T21:30:57.348Z,7.437
2022-12-24T21:33:57.577Z,7.375
2022-12-24T21:37:02.767Z,7.375
2022-12-24T21:39:57.593Z,7.312
2022-12-24T21:42:57.873Z,7.312
2022-12-24T21:45:57.853Z,7.375
2022-12-24T21:48:56.954Z,7.375
2022-12-24T21:51:57.842Z,7.312
2022-12-24T21:54:57.539Z,7.312
2022-12-24T21:57:56.808Z,7.312
2022-12-24T22:00:57.664Z,7.375
2022-12-24T22:03:56.750Z,7.312
2022-12-24T22:06:56.955Z,7.312
2022-12-24T22:09:58.252Z,7.375
2022-12-24T22:12:57.575Z,7.375
2022-12-24T22:15:57.753Z,7.375
2022-12-24T22:18:58.021Z,7.312
2022-12-24T22:21:57.471Z,7.25
2022-12-24T22:24:57.144Z,7.187
2022-12-24T22:27:57.293Z,7.125
2022-12-24T22:30:58.261Z,7.062
2022-12-24T22:33:57.417Z,7.062
2022-12-24T22:36:56.807Z,6.937
2022-12-24T22:39:57.566Z,6.875
2022-12-24T22:42:57.236Z,6.812
2022-12-24T22:45:56.961Z,6.687
2022-12-24T22:48:57.152Z,6.625
2022-12-24T22:51:57.692Z,6.625
2022-12-24T22:54:57.799Z,6.562
2022-12-24T22:57:57.256Z,6.562
2022-12-24T23:01:25.804Z,6.625
2022-12-24T23:03:57.149Z,6.562
2022-12-24T23:06:56.961Z,6.562
2022-12-24T23:09:57.349Z,6.562
2022-12-24T23:12:56.705Z,6.5
2022-12-24T23:15:57.620Z,6.5
2022-12-24T23:18:57.535Z,6.5
2022-12-24T23:21:57.457Z,6.5
2022-12-24T23:24:57.263Z,6.562
2022-12-24T23:27:57.601Z,6.562
2022-12-24T23:30:57.692Z,6.5
2022-12-24T23:33:57.727Z,6.625
2022-12-24T23:36:57.100Z,6.625
2022-12-24T23:39:57.739Z,6.75
2022-12-24T23:42:57.118Z,6.562
2022-12-24T23:45:57.494Z,6.312
2022-12-24T23:48:57.798Z,6.375
2022-12-24T23:51:57.008Z,6.312
2022-12-24T23:54:57.004Z,6.25
2022-12-24T23:57:57.425Z,6.25
